Time;durP1;ratioP1;P1;durP2;ratioP2;P2;SDS_P1;SDS_P2;PMS_P1;PMS_P2;Temp;Humidity;BMP_temperature;BMP_pressure;BME280_temperature;BME280_humidity;BME280_pressure;Samples;Min_cycle;Max_cycle;Signal;HPM_P1;HPM_P2
2021/12/25 00:01:29;;;;;;;22.50;13.00;;;6.80;99.90;;;;;;5039228;28;20025;-87
2021/12/25 00:03:56;;;;;;;18.75;11.93;;;6.80;99.90;;;;;;5033647;28;20037;-87
2021/12/25 00:06:23;;;;;;;24.88;13.73;;;6.80;99.90;;;;;;5022787;28;20028;-87
2021/12/25 00:08:49;;;;;;;22.27;13.00;;;6.70;99.90;;;;;;5040399;28;20025;-87
2021/12/25 00:11:15;;;;;;;23.08;13.75;;;6.70;99.90;;;;;;5022606;28;20036;-87
2021/12/25 00:17:03;;;;;;;21.27;13.20;;;6.70;99.90;;;;;;5036346;28;20144;-85
2021/12/25 00:19:29;;;;;;;21.45;13.00;;;6.70;99.90;;;;;;5017356;28;20075;-85
2021/12/25 00:21:56;;;;;;;20.60;12.95;;;6.60;99.90;;;;;;4997362;28;20041;-85
2021/12/25 00:24:22;;;;;;;22.88;12.77;;;6.60;99.90;;;;;;4986446;28;20403;-85
2021/12/25 00:27:04;;;;;;;22.75;13.23;;;6.50;99.90;;;;;;5019015;28;20528;-85
2021/12/25 00:32:41;;;;;;;21.20;11.63;;;6.50;99.90;;;;;;5013405;28;20041;-85
2021/12/25 00:34:45;;;;;;;22.65;13.57;;;6.40;99.90;;;;;;5035570;28;20542;-85
2021/12/25 00:37:10;;;;;;;21.30;12.38;;;6.40;99.90;;;;;;5015323;28;20030;-86
2021/12/25 00:39:37;;;;;;;20.13;11.30;;;6.40;99.90;;;;;;5015166;28;20036;-85
2021/12/25 00:42:05;;;;;;;18.40;11.38;;;6.40;99.90;;;;;;5001375;28;20028;-85
2021/12/25 00:44:31;;;;;;;21.50;12.27;;;6.40;99.90;;;;;;5018331;28;20034;-85
2021/12/25 00:46:59;;;;;;;23.48;12.52;;;6.30;99.90;;;;;;4996887;28;20039;-85
2021/12/25 00:49:26;;;;;;;21.63;12.15;;;6.30;99.90;;;;;;5002337;28;20064;-85
2021/12/25 00:51:52;;;;;;;21.92;11.90;;;6.30;99.90;;;;;;4996129;28;20029;-85
2021/12/25 00:54:18;;;;;;;22.33;12.15;;;6.30;99.90;;;;;;5018109;28;20498;-85
2021/12/25 00:56:44;;;;;;;21.15;11.40;;;6.30;99.90;;;;;;5012018;28;20052;-85
2021/12/25 00:59:10;;;;;;;18.77;10.75;;;6.20;99.90;;;;;;4985960;28;20029;-86
2021/12/25 01:01:36;;;;;;;16.98;9.95;;;6.20;99.90;;;;;;5018415;28;20021;-85
2021/12/25 01:04:05;;;;;;;16.98;10.10;;;6.20;99.90;;;;;;5030181;28;20068;-85
2021/12/25 01:06:31;;;;;;;16.55;10.30;;;6.20;99.90;;;;;;5001987;28;20049;-85
2021/12/25 01:08:57;;;;;;;17.42;10.55;;;6.20;99.90;;;;;;4996604;28;20036;-85
2021/12/25 01:11:31;;;;;;;17.77;10.40;;;6.10;99.90;;;;;;5018213;28;20084;-85
2021/12/25 01:14:08;;;;;;;17.40;11.23;;;6.10;99.90;;;;;;5033487;28;20036;-85
2021/12/25 01:36:25;;;;;;;23.13;14.77;;;5.70;99.90;;;;;;4923769;29;20032;-85
2021/12/25 01:38:27;;;;;;;27.05;14.70;;;5.70;99.90;;;;;;4927321;29;20473;-85
2021/12/25 01:41:16;;;;;;;23.17;14.93;;;5.60;99.90;;;;;;4991495;28;20038;-85
2021/12/25 01:49:13;;;;;;;23.92;15.38;;;5.50;99.90;;;;;;5031384;28;20037;-86
2021/12/25 01:51:40;;;;;;;27.42;16.23;;;5.50;99.90;;;;;;5025928;28;20033;-85
2021/12/25 01:54:05;;;;;;;25.80;15.45;;;5.40;99.90;;;;;;5017112;28;20049;-86
2021/12/25 01:56:31;;;;;;;26.00;15.65;;;5.40;99.90;;;;;;5017222;28;20475;-86
2021/12/25 01:58:57;;;;;;;29.13;16.75;;;5.30;99.90;;;;;;5028334;28;20036;-86
2021/12/25 02:01:23;;;;;;;29.92;17.70;;;5.30;99.90;;;;;;5017163;28;20483;-86
2021/12/25 02:03:49;;;;;;;29.48;18.20;;;5.30;99.90;;;;;;5010913;28;20029;-85
2021/12/25 02:06:17;;;;;;;27.25;16.88;;;5.30;99.90;;;;;;5017045;28;20120;-85
2021/12/25 02:08:44;;;;;;;30.13;17.70;;;5.20;99.90;;;;;;5010019;28;20029;-86
2021/12/25 02:11:11;;;;;;;30.08;18.50;;;5.20;99.90;;;;;;5016951;28;20022;-85
2021/12/25 02:13:40;;;;;;;28.77;17.33;;;5.20;99.90;;;;;;5017112;28;20028;-86
2021/12/25 02:16:12;;;;;;;28.40;17.92;;;5.20;99.90;;;;;;5017095;28;20036;-86
2021/12/25 02:21:27;;;;;;;31.15;19.33;;;5.10;99.90;;;;;;5032179;28;20553;-85
2021/12/25 02:23:54;;;;;;;30.77;18.60;;;5.10;99.90;;;;;;5018903;28;20491;-86
2021/12/25 02:26:21;;;;;;;30.00;19.50;;;5.10;99.90;;;;;;5020100;28;20049;-85
2021/12/25 02:28:48;;;;;;;32.97;19.38;;;5.00;99.90;;;;;;5013858;28;20051;-85
2021/12/25 02:31:16;;;;;;;33.28;19.60;;;5.00;99.90;;;;;;5020039;28;20047;-85
2021/12/25 02:33:42;;;;;;;36.30;20.17;;;5.00;99.90;;;;;;5036555;28;20021;-86
2021/12/25 02:36:09;;;;;;;31.05;19.45;;;4.90;99.90;;;;;;5054198;28;20031;-85
2021/12/25 02:38:36;;;;;;;32.13;19.35;;;4.90;99.90;;;;;;5036510;28;20047;-85
2021/12/25 02:41:02;;;;;;;33.55;19.70;;;4.90;99.90;;;;;;5031659;28;20029;-85
2021/12/25 02:43:28;;;;;;;29.00;18.55;;;4.90;99.90;;;;;;5036281;28;20116;-86
2021/12/25 02:45:55;;;;;;;28.85;18.85;;;4.80;99.90;;;;;;5030755;28;20041;-86
2021/12/25 02:48:22;;;;;;;30.13;18.80;;;4.80;99.90;;;;;;5019929;28;20499;-86
2021/12/25 02:50:48;;;;;;;30.65;18.88;;;4.70;99.90;;;;;;5029689;28;20029;-86
2021/12/25 02:53:16;;;;;;;32.80;19.48;;;4.60;99.90;;;;;;5019667;28;20028;-86
2021/12/25 02:55:43;;;;;;;32.63;19.77;;;4.60;99.90;;;;;;5054491;28;20021;-86
2021/12/25 02:58:11;;;;;;;35.85;20.25;;;4.50;99.90;;;;;;5054173;28;20050;-86
2021/12/25 03:00:46;;;;;;;32.63;20.02;;;4.60;99.90;;;;;;5036313;28;20021;-86
2021/12/25 03:03:12;;;;;;;34.97;20.35;;;4.60;99.90;;;;;;5036259;28;20037;-86
2021/12/25 03:05:38;;;;;;;35.20;20.75;;;4.50;99.90;;;;;;5045772;28;20508;-86
2021/12/25 03:08:06;;;;;;;37.15;20.52;;;4.50;99.90;;;;;;5040251;28;20035;-86
2021/12/25 03:10:35;;;;;;;33.45;19.95;;;4.50;99.90;;;;;;5040434;28;20053;-86
2021/12/25 03:15:45;;;;;;;34.60;19.27;;;4.50;99.90;;;;;;5058129;28;20435;-86
2021/12/25 03:18:19;;;;;;;36.10;18.98;;;4.50;99.90;;;;;;5040110;28;20198;-85
2021/12/25 03:20:47;;;;;;;34.17;18.52;;;4.50;99.90;;;;;;5033090;28;20029;-86
2021/12/25 03:23:16;;;;;;;33.75;18.58;;;4.50;99.90;;;;;;5039920;28;20025;-86
2021/12/25 03:25:43;;;;;;;32.10;18.33;;;4.40;99.90;;;;;;5039904;28;20048;-86
2021/12/25 03:28:10;;;;;;;35.03;18.80;;;4.40;99.90;;;;;;5023446;28;20478;-85
2021/12/25 03:30:39;;;;;;;37.30;19.58;;;4.40;99.90;;;;;;5023596;28;20035;-86
2021/12/25 03:33:06;;;;;;;41.42;19.85;;;4.40;99.90;;;;;;5056344;28;20029;-86
2021/12/25 03:35:34;;;;;;;38.47;18.60;;;4.40;99.90;;;;;;5023071;28;20029;-85
2021/12/25 03:38:04;;;;;;;33.88;18.75;;;4.40;99.90;;;;;;5039680;28;20009;-86
2021/12/25 03:40:30;;;;;;;34.03;18.17;;;4.40;99.90;;;;;;5039753;28;20036;-86
2021/12/25 03:42:56;;;;;;;29.77;16.90;;;4.40;99.90;;;;;;5039606;28;20032;-85
2021/12/25 03:45:21;;;;;;;33.35;16.98;;;4.30;99.90;;;;;;5057268;28;20025;-86
2021/12/25 03:47:50;;;;;;;30.15;16.33;;;4.30;99.90;;;;;;5039567;28;20021;-86
2021/12/25 03:58:26;;;;;;;27.67;15.02;;;4.20;99.90;;;;;;5036101;28;20445;-86
2021/12/25 04:00:58;;;;;;;26.42;14.75;;;4.10;99.90;;;;;;5035700;28;20033;-86
2021/12/25 04:03:39;;;;;;;30.48;14.70;;;4.10;99.90;;;;;;5019313;28;20036;-86
2021/12/25 04:06:08;;;;;;;24.25;13.57;;;4.10;99.90;;;;;;5004889;28;20025;-86
2021/12/25 04:08:41;;;;;;;22.42;13.52;;;4.00;99.90;;;;;;5035058;28;20111;-86
2021/12/25 04:11:26;;;;;;;28.40;14.32;;;4.00;99.90;;;;;;5019110;28;20100;-86
2021/12/25 04:13:52;;;;;;;26.33;14.13;;;4.00;99.90;;;;;;5013079;28;20103;-86
2021/12/25 04:16:17;;;;;;;20.88;12.88;;;4.00;99.90;;;;;;5002425;28;20108;-86
2021/12/25 04:18:43;;;;;;;23.55;13.45;;;4.00;99.90;;;;;;5019140;28;20033;-86
2021/12/25 04:21:09;;;;;;;22.20;12.48;;;3.90;99.90;;;;;;5035313;28;20040;-86
2021/12/25 04:23:38;;;;;;;22.83;11.90;;;3.90;99.90;;;;;;5002659;28;20033;-86
2021/12/25 04:26:04;;;;;;;22.02;12.05;;;3.90;99.90;;;;;;5002688;28;20049;-86
2021/12/25 04:28:48;;;;;;;22.90;12.65;;;4.00;99.90;;;;;;5002488;28;20025;-86
2021/12/25 05:03:41;;;;;;;17.25;8.30;;;3.50;99.90;;;;;;5036311;28;20044;-85
2021/12/25 05:06:07;;;;;;;12.23;6.57;;;3.50;99.90;;;;;;5018230;28;20029;-85
2021/12/25 05:08:33;;;;;;;10.13;6.00;;;3.50;99.90;;;;;;5018306;28;20025;-86
2021/12/25 05:10:59;;;;;;;12.77;6.65;;;3.50;99.90;;;;;;5001858;28;20026;-86
2021/12/25 05:13:24;;;;;;;13.98;6.28;;;3.40;99.90;;;;;;5017922;28;20455;-86
2021/12/25 05:15:50;;;;;;;11.13;6.50;;;3.40;99.90;;;;;;5001894;28;20434;-86
2021/12/25 05:18:16;;;;;;;11.82;6.32;;;3.30;99.90;;;;;;5034333;28;20057;-85
2021/12/25 05:20:42;;;;;;;9.10;5.13;;;3.30;99.90;;;;;;5034503;28;20032;-86
2021/12/25 05:23:08;;;;;;;11.57;4.57;;;3.30;99.90;;;;;;5034146;28;20060;-85
2021/12/25 05:25:35;;;;;;;8.02;4.45;;;3.20;99.90;;;;;;5001291;28;20128;-85
2021/12/25 05:28:02;;;;;;;8.73;4.40;;;3.20;99.90;;;;;;5016973;28;20379;-85
2021/12/25 05:30:29;;;;;;;6.43;3.67;;;3.20;99.90;;;;;;5001310;28;20025;-86
2021/12/25 05:32:55;;;;;;;6.68;3.33;;;3.10;99.90;;;;;;5001558;28;20364;-85
2021/12/25 05:35:21;;;;;;;6.13;3.25;;;3.10;99.90;;;;;;5018693;28;20472;-85
2021/12/25 05:37:47;;;;;;;8.55;3.67;;;3.00;99.90;;;;;;5037313;28;20107;-86
2021/12/25 05:40:14;;;;;;;5.57;2.90;;;3.00;99.90;;;;;;5020987;28;20459;-85
2021/12/25 05:42:39;;;;;;;5.25;3.10;;;3.00;99.90;;;;;;5037117;28;20032;-86
2021/12/25 05:45:06;;;;;;;9.73;4.35;;;2.90;99.90;;;;;;5020648;28;20029;-85
2021/12/25 05:47:32;;;;;;;9.32;3.92;;;2.90;99.90;;;;;;5037310;28;20501;-86
2021/12/25 05:49:58;;;;;;;7.00;3.63;;;2.80;99.90;;;;;;5004385;28;20032;-86
2021/12/25 05:52:24;;;;;;;8.88;3.70;;;2.80;99.90;;;;;;5020614;28;20029;-86
2021/12/25 05:54:50;;;;;;;5.93;3.50;;;2.80;99.90;;;;;;5020549;28;20083;-86
2021/12/25 05:57:15;;;;;;;6.70;3.42;;;2.80;99.90;;;;;;5020556;28;20029;-86
2021/12/25 05:59:41;;;;;;;8.77;3.70;;;2.90;99.90;;;;;;5020421;28;20458;-85
2021/12/25 06:02:07;;;;;;;5.65;2.92;;;2.80;99.90;;;;;;5037222;28;20048;-86
2021/12/25 06:04:34;;;;;;;6.97;3.47;;;2.80;99.90;;;;;;5020693;28;20025;-86
2021/12/25 06:07:01;;;;;;;9.57;3.50;;;2.80;99.90;;;;;;5036607;28;20048;-85
2021/12/25 06:09:26;;;;;;;7.40;2.90;;;2.70;99.90;;;;;;5020469;28;20355;-86
2021/12/25 06:11:52;;;;;;;7.40;3.15;;;2.70;99.90;;;;;;5020149;28;20025;-85
2021/12/25 06:14:20;;;;;;;10.85;3.45;;;2.70;99.90;;;;;;5020220;28;20036;-86
2021/12/25 06:16:47;;;;;;;5.72;3.40;;;2.70;99.90;;;;;;5036729;28;20018;-86
2021/12/25 06:19:13;;;;;;;7.38;3.83;;;2.70;99.90;;;;;;5036526;28;20028;-86
2021/12/25 06:21:39;;;;;;;8.30;4.20;;;2.70;99.90;;;;;;5020156;28;20052;-85
2021/12/25 06:24:05;;;;;;;8.90;4.40;;;2.70;99.90;;;;;;5036593;28;20497;-85
2021/12/25 06:26:32;;;;;;;8.13;4.35;;;2.60;99.90;;;;;;5002858;28;20052;-85
2021/12/25 06:28:58;;;;;;;6.68;4.35;;;2.60;99.90;;;;;;5036476;28;20021;-85
2021/12/25 06:31:24;;;;;;;6.65;4.10;;;2.60;99.90;;;;;;5034696;28;20033;-85
2021/12/25 06:33:50;;;;;;;9.02;4.35;;;2.50;99.90;;;;;;5036520;28;20474;-85
2021/12/25 06:36:16;;;;;;;8.25;4.10;;;2.50;99.90;;;;;;5033725;28;20017;-86
2021/12/25 06:38:42;;;;;;;7.95;4.60;;;2.50;99.90;;;;;;5036451;28;20028;-85
2021/12/25 06:41:10;;;;;;;7.10;4.65;;;2.50;99.90;;;;;;5032595;28;20029;-85
2021/12/25 06:43:36;;;;;;;9.98;4.30;;;2.50;99.90;;;;;;5036526;28;20367;-85
2021/12/25 06:46:03;;;;;;;6.72;4.28;;;2.40;99.90;;;;;;5054186;28;20028;-85
2021/12/25 06:48:29;;;;;;;8.27;4.55;;;2.50;99.90;;;;;;5036319;28;20426;-85
2021/12/25 06:50:55;;;;;;;6.70;4.30;;;2.40;99.90;;;;;;5014175;28;20021;-85
2021/12/25 06:53:20;;;;;;;9.63;4.45;;;2.40;99.90;;;;;;5036133;28;20386;-85
2021/12/25 06:55:46;;;;;;;7.40;4.53;;;2.40;99.90;;;;;;5046170;28;20048;-85
2021/12/25 06:58:12;;;;;;;7.72;4.40;;;2.40;99.90;;;;;;5036183;28;20021;-86
2021/12/25 07:00:38;;;;;;;8.35;4.50;;;2.30;99.90;;;;;;5019725;28;20095;-85
2021/12/25 07:03:03;;;;;;;7.60;4.07;;;2.30;99.90;;;;;;5036087;28;20033;-85
2021/12/25 07:05:29;;;;;;;8.82;5.18;;;2.30;99.90;;;;;;5019623;28;20123;-85
2021/12/25 07:07:55;;;;;;;9.50;4.70;;;2.20;99.90;;;;;;5036080;28;20474;-85
2021/12/25 07:11:14;;;;;;;7.15;4.72;;;2.20;99.90;;;;;;5035024;28;20506;-85
2021/12/25 07:13:43;;;;;;;7.65;4.28;;;2.20;99.90;;;;;;5034997;28;20356;-86
2021/12/25 07:16:09;;;;;;;6.72;3.78;;;2.20;99.90;;;;;;5019899;28;20470;-85
2021/12/25 07:18:35;;;;;;;8.82;4.25;;;2.20;99.90;;;;;;5019377;28;20117;-85
2021/12/25 07:21:02;;;;;;;7.75;4.20;;;2.10;99.90;;;;;;5035802;28;20017;-85
2021/12/25 07:23:28;;;;;;;7.50;3.80;;;2.10;99.90;;;;;;5035912;28;20036;-85
2021/12/25 07:25:53;;;;;;;10.52;4.13;;;2.10;99.90;;;;;;5013291;28;20049;-85
2021/12/25 07:28:19;;;;;;;8.60;4.45;;;2.00;99.90;;;;;;5035961;28;20383;-85
2021/12/25 07:30:45;;;;;;;7.47;3.85;;;2.00;99.90;;;;;;5012459;28;20021;-85
2021/12/25 07:33:10;;;;;;;6.85;3.70;;;2.00;99.90;;;;;;5019505;28;20032;-86
2021/12/25 07:35:36;;;;;;;7.97;4.25;;;2.00;99.90;;;;;;5019487;28;20470;-86
2021/12/25 07:38:02;;;;;;;10.25;3.85;;;2.00;99.90;;;;;;5019308;28;20419;-86
2021/12/25 07:40:29;;;;;;;8.75;4.57;;;2.00;99.90;;;;;;5035778;28;20048;-86
2021/12/25 07:42:55;;;;;;;7.30;4.20;;;1.90;99.90;;;;;;5034917;28;20398;-86
2021/12/25 07:45:21;;;;;;;11.48;5.63;;;1.90;99.90;;;;;;5018312;28;20029;-86
2021/12/25 07:47:56;;;;;;;6.97;4.25;;;1.90;99.90;;;;;;5045987;28;20051;-86
2021/12/25 07:50:21;;;;;;;6.85;4.38;;;1.80;99.90;;;;;;5019637;28;20052;-86
2021/12/25 07:52:47;;;;;;;8.40;4.53;;;1.80;99.90;;;;;;5037267;28;20033;-85
2021/12/25 07:55:13;;;;;;;10.02;4.57;;;1.70;99.90;;;;;;5038944;28;20017;-85
2021/12/25 07:57:38;;;;;;;8.00;4.30;;;1.70;99.90;;;;;;5039043;28;20528;-86
2021/12/25 08:00:08;;;;;;;7.93;4.78;;;1.70;99.90;;;;;;5039147;28;20100;-85
2021/12/25 08:02:33;;;;;;;8.77;5.10;;;1.60;99.90;;;;;;5038267;28;20111;-86
2021/12/25 08:04:59;;;;;;;9.90;4.32;;;1.60;99.90;;;;;;5048922;28;20172;-86
2021/12/25 08:07:25;;;;;;;6.10;4.32;;;1.60;99.90;;;;;;5004431;28;20031;-86
2021/12/25 08:09:57;;;;;;;11.63;4.85;;;1.50;99.90;;;;;;5038858;28;20104;-86
2021/12/25 08:12:22;;;;;;;8.10;4.68;;;1.50;99.90;;;;;;5037015;28;20025;-85
2021/12/25 08:14:48;;;;;;;10.15;4.75;;;1.50;99.90;;;;;;5032542;28;20031;-86
2021/12/25 08:17:14;;;;;;;9.88;4.82;;;1.50;99.90;;;;;;5022677;28;20045;-85
2021/12/25 08:19:40;;;;;;;8.10;4.55;;;1.40;99.90;;;;;;5048120;28;20391;-86
2021/12/25 08:22:06;;;;;;;8.15;4.60;;;1.40;99.90;;;;;;5038792;28;20091;-85
2021/12/25 08:24:31;;;;;;;8.55;4.55;;;1.40;99.90;;;;;;5021723;28;20482;-85
2021/12/25 08:27:04;;;;;;;8.93;4.45;;;1.30;99.90;;;;;;5038764;28;20029;-85
2021/12/25 08:29:30;;;;;;;7.47;4.15;;;1.30;99.90;;;;;;5039812;28;20033;-86
2021/12/25 08:31:56;;;;;;;6.50;3.97;;;1.30;99.90;;;;;;5038477;28;20029;-85
2021/12/25 08:34:22;;;;;;;7.97;3.83;;;1.30;99.90;;;;;;5038678;28;20032;-86
2021/12/25 08:36:48;;;;;;;8.38;3.67;;;1.30;99.90;;;;;;5022109;28;20025;-85
2021/12/25 08:39:13;;;;;;;6.70;3.65;;;1.30;99.90;;;;;;5025711;23;20055;-85
2021/12/25 08:41:44;;;;;;;5.90;3.20;;;1.20;99.90;;;;;;5022062;28;20029;-85
2021/12/25 08:44:31;;;;;;;8.10;4.38;;;1.20;99.90;;;;;;5022119;28;20029;-85
2021/12/25 08:46:59;;;;;;;5.32;2.70;;;1.20;99.90;;;;;;5047586;28;20116;-86
2021/12/25 08:49:29;;;;;;;6.72;2.72;;;1.20;99.90;;;;;;5004725;28;20073;-85
2021/12/25 08:51:56;;;;;;;4.13;2.47;;;1.20;99.90;;;;;;5037912;28;20025;-85
2021/12/25 08:54:23;;;;;;;6.03;2.67;;;1.20;99.90;;;;;;5038255;28;20025;-85
2021/12/25 08:56:49;;;;;;;6.00;2.70;;;1.20;99.90;;;;;;5020602;28;20029;-85
2021/12/25 08:59:15;;;;;;;5.00;2.30;;;1.10;99.90;;;;;;5020992;28;20070;-85
2021/12/25 09:01:41;;;;;;;4.30;2.20;;;1.20;99.90;;;;;;5021527;28;20033;-85
2021/12/25 09:04:06;;;;;;;7.43;2.33;;;1.20;99.90;;;;;;5037860;28;20032;-85
2021/12/25 09:06:33;;;;;;;4.85;2.22;;;1.10;99.90;;;;;;5037658;28;20127;-85
2021/12/25 09:12:23;;;;;;;6.32;2.33;;;1.20;99.90;;;;;;5051316;28;20032;-85
2021/12/25 09:14:49;;;;;;;4.13;1.88;;;1.10;99.90;;;;;;5037719;28;20113;-85
2021/12/25 09:17:15;;;;;;;5.15;2.00;;;1.10;99.90;;;;;;5037468;28;20446;-85
2021/12/25 09:19:42;;;;;;;5.32;1.83;;;1.10;99.90;;;;;;5037473;28;20467;-85
2021/12/25 09:22:12;;;;;;;3.10;1.83;;;1.10;99.90;;;;;;5021044;28;20116;-86
2021/12/25 09:24:39;;;;;;;5.63;1.70;;;1.00;99.90;;;;;;5029857;28;20033;-86
2021/12/25 09:27:05;;;;;;;4.13;1.77;;;1.10;99.90;;;;;;5037212;28;20585;-86
2021/12/25 09:29:31;;;;;;;3.88;1.40;;;1.10;99.90;;;;;;5037136;28;20021;-85
2021/12/25 09:31:58;;;;;;;2.67;1.42;;;1.10;99.90;;;;;;5020858;28;20025;-86
2021/12/25 09:34:24;;;;;;;3.40;1.83;;;1.00;99.90;;;;;;5037470;28;20021;-86
2021/12/25 09:36:50;;;;;;;2.92;1.38;;;1.10;99.90;;;;;;5037431;28;20021;-85
2021/12/25 09:39:15;;;;;;;6.18;1.40;;;1.10;99.90;;;;;;5036880;28;20048;-86
2021/12/25 09:41:42;;;;;;;3.55;1.42;;;1.10;99.90;;;;;;5055079;28;20087;-86
2021/12/25 09:44:07;;;;;;;2.15;1.30;;;1.10;99.90;;;;;;5036904;28;20102;-86
2021/12/25 09:46:34;;;;;;;3.53;1.50;;;1.10;99.90;;;;;;5019962;28;20087;-85
2021/12/25 09:49:01;;;;;;;3.00;1.20;;;1.10;99.90;;;;;;5020142;28;20108;-86
2021/12/25 09:51:27;;;;;;;3.42;1.45;;;1.10;99.90;;;;;;5019920;28;20475;-86
2021/12/25 09:54:06;;;;;;;2.45;1.20;;;1.10;99.90;;;;;;5020765;28;20035;-86
2021/12/25 09:56:35;;;;;;;3.85;1.15;;;1.20;99.90;;;;;;5036839;28;20098;-86
2021/12/25 09:59:03;;;;;;;2.60;1.20;;;1.20;99.90;;;;;;5036473;28;20127;-86
2021/12/25 10:01:41;;;;;;;2.58;1.10;;;1.20;99.90;;;;;;5020849;28;20029;-87
2021/12/25 10:04:10;;;;;;;2.85;0.98;;;1.20;99.90;;;;;;5036978;28;20032;-86
2021/12/25 10:06:38;;;;;;;4.82;1.63;;;1.20;99.90;;;;;;5036961;28;20025;-86
2021/12/25 10:09:24;;;;;;;1.60;1.00;;;1.20;99.90;;;;;;5020477;28;20107;-86
2021/12/25 10:12:03;;;;;;;3.75;1.20;;;1.20;99.90;;;;;;5036658;28;20497;-87
2021/12/25 10:14:29;;;;;;;3.47;1.08;;;1.20;99.90;;;;;;5036293;28;20505;-86
2021/12/25 10:16:55;;;;;;;6.00;1.25;;;1.20;99.90;;;;;;5036816;28;20029;-86
2021/12/25 10:19:31;;;;;;;2.67;1.15;;;1.20;99.90;;;;;;5036761;28;20075;-87
2021/12/25 10:22:08;;;;;;;2.08;1.25;;;1.20;99.90;;;;;;5036682;28;20032;-86
2021/12/25 10:24:47;;;;;;;2.33;1.08;;;1.20;99.90;;;;;;5036567;28;20025;-87
2021/12/25 10:27:20;;;;;;;2.30;1.00;;;1.20;99.90;;;;;;5036181;28;20021;-86
2021/12/25 10:29:47;;;;;;;2.78;1.20;;;1.20;99.90;;;;;;5036345;28;20043;-86
2021/12/25 10:32:22;;;;;;;3.55;1.02;;;1.20;99.90;;;;;;5036110;28;20390;-88
2021/12/25 10:34:50;;;;;;;3.20;1.00;;;1.30;99.90;;;;;;5019983;28;20474;-87
2021/12/25 10:37:18;;;;;;;2.10;1.13;;;1.30;99.90;;;;;;5036192;28;20044;-87
2021/12/25 10:39:45;;;;;;;3.83;1.55;;;1.40;99.90;;;;;;5036313;28;20064;-86
2021/12/25 10:42:22;;;;;;;4.43;1.25;;;1.40;99.90;;;;;;5036468;28;20112;-87
2021/12/25 10:44:55;;;;;;;2.67;1.33;;;1.40;99.90;;;;;;5036441;28;20025;-86
2021/12/25 10:47:24;;;;;;;3.83;1.33;;;1.50;99.90;;;;;;5036569;28;20057;-88
2021/12/25 10:49:56;;;;;;;2.35;1.13;;;1.50;99.90;;;;;;5036445;28;20063;-86
2021/12/25 10:52:30;;;;;;;3.08;0.90;;;1.50;99.90;;;;;;5036586;28;20470;-86
2021/12/25 10:54:57;;;;;;;3.05;1.20;;;1.50;99.90;;;;;;5036339;28;20484;-86
2021/12/25 10:57:38;;;;;;;3.78;1.05;;;1.60;99.90;;;;;;5036448;28;20028;-86
2021/12/25 11:00:22;;;;;;;1.63;0.70;;;1.60;99.90;;;;;;5036476;28;20096;-87
2021/12/25 11:03:02;;;;;;;3.03;1.23;;;1.60;99.90;;;;;;5036437;28;20056;-87
2021/12/25 11:05:34;;;;;;;2.90;1.10;;;1.70;99.90;;;;;;5036540;28;20029;-87
2021/12/25 11:08:08;;;;;;;2.20;0.80;;;1.70;99.90;;;;;;5036485;28;20029;-87
2021/12/25 11:10:50;;;;;;;2.67;1.25;;;1.70;99.90;;;;;;5036209;28;20488;-87
2021/12/25 11:13:19;;;;;;;3.60;1.10;;;1.70;99.90;;;;;;5036172;28;20092;-86
2021/12/25 11:15:47;;;;;;;3.03;0.90;;;1.80;99.90;;;;;;5036146;28;20097;-85
2021/12/25 11:18:15;;;;;;;2.97;1.02;;;1.80;99.90;;;;;;5016119;28;20033;-85
2021/12/25 11:20:43;;;;;;;2.33;1.02;;;1.90;99.90;;;;;;5003123;28;20387;-85
2021/12/25 11:23:11;;;;;;;1.90;0.98;;;2.00;99.90;;;;;;5036046;28;20032;-86
2021/12/25 11:25:39;;;;;;;3.10;0.90;;;2.10;99.90;;;;;;5018289;28;20036;-85
2021/12/25 11:28:10;;;;;;;2.03;1.00;;;2.20;99.90;;;;;;5035631;28;20116;-86
2021/12/25 11:30:43;;;;;;;1.58;0.82;;;2.30;99.90;;;;;;5036486;28;20128;-86
2021/12/25 11:33:10;;;;;;;1.75;0.70;;;2.40;99.90;;;;;;5039246;28;20501;-86
2021/12/25 11:35:37;;;;;;;3.53;0.90;;;2.40;99.90;;;;;;5038929;28;20036;-86
2021/12/25 11:38:06;;;;;;;4.13;1.05;;;2.50;99.90;;;;;;5018947;28;20677;-86
2021/12/25 11:40:35;;;;;;;2.45;1.00;;;2.50;99.90;;;;;;5022410;28;20054;-86
2021/12/25 11:43:04;;;;;;;2.10;1.00;;;2.60;99.90;;;;;;5016914;28;20119;-84
2021/12/25 11:45:36;;;;;;;7.15;1.10;;;2.60;99.90;;;;;;5007419;28;20167;-84
2021/12/25 11:48:22;;;;;;;2.95;0.98;;;2.60;99.90;;;;;;5039123;28;20032;-84
2021/12/25 11:50:52;;;;;;;3.30;1.15;;;2.50;99.90;;;;;;5022058;28;20041;-85
2021/12/25 11:54:06;;;;;;;2.20;0.95;;;2.50;99.90;;;;;;5039172;28;20139;-84
2021/12/25 11:56:49;;;;;;;3.00;0.85;;;2.50;99.90;;;;;;5056706;28;20108;-84
2021/12/25 11:59:19;;;;;;;1.52;1.00;;;2.50;99.90;;;;;;5041993;28;20029;-83
2021/12/25 12:01:53;;;;;;;3.22;0.82;;;2.50;99.90;;;;;;5038858;28;20025;-83
2021/12/25 12:04:21;;;;;;;2.47;1.17;;;2.60;99.90;;;;;;5038713;28;20032;-83
2021/12/25 12:06:47;;;;;;;3.17;0.90;;;2.70;99.90;;;;;;5038496;28;20079;-83
2021/12/25 12:09:15;;;;;;;3.50;1.15;;;2.80;99.90;;;;;;5056324;28;20025;-83
2021/12/25 12:11:43;;;;;;;2.17;0.80;;;2.80;99.90;;;;;;5038168;28;20100;-83
2021/12/25 12:14:17;;;;;;;3.85;1.10;;;2.90;99.90;;;;;;5038084;28;20025;-84
2021/12/25 12:16:44;;;;;;;4.00;1.23;;;3.00;99.90;;;;;;5038516;28;20482;-83
2021/12/25 12:19:38;;;;;;;2.80;1.20;;;3.10;99.90;;;;;;5038488;28;20021;-83
2021/12/25 12:22:36;;;;;;;1.30;0.70;;;3.20;99.90;;;;;;5038223;28;20028;-83
2021/12/25 12:25:26;;;;;;;2.53;0.95;;;3.20;99.90;;;;;;5038369;28;20093;-83
2021/12/25 12:28:02;;;;;;;3.20;1.00;;;3.20;99.90;;;;;;5038201;28;20028;-83
2021/12/25 12:30:31;;;;;;;1.85;0.82;;;3.30;99.90;;;;;;5038233;28;20021;-83
2021/12/25 12:32:58;;;;;;;3.38;0.90;;;3.30;99.90;;;;;;5037837;28;20033;-83
2021/12/25 12:35:38;;;;;;;2.78;1.00;;;3.40;99.90;;;;;;5021620;28;20086;-83
2021/12/25 12:38:31;;;;;;;1.20;0.70;;;3.40;99.90;;;;;;5037909;28;20032;-83
2021/12/25 12:41:21;;;;;;;2.75;1.00;;;3.50;99.90;;;;;;5035714;28;20143;-83
2021/12/25 12:44:05;;;;;;;3.63;1.10;;;3.60;99.90;;;;;;5032119;28;20100;-83
2021/12/25 12:46:53;;;;;;;2.67;1.30;;;3.70;99.90;;;;;;5037334;28;20077;-83
2021/12/25 12:49:21;;;;;;;2.95;1.00;;;3.80;99.90;;;;;;5037208;28;20021;-84
2021/12/25 12:52:10;;;;;;;4.68;1.10;;;3.70;99.90;;;;;;5054535;28;20114;-83
2021/12/25 12:54:42;;;;;;;2.78;1.00;;;3.80;99.90;;;;;;5036854;28;20044;-83
2021/12/25 12:57:08;;;;;;;1.95;1.15;;;3.80;99.90;;;;;;5021366;28;20068;-85
2021/12/25 12:59:46;;;;;;;2.17;1.13;;;3.80;99.90;;;;;;5020497;28;20541;-83
2021/12/25 13:02:13;;;;;;;4.30;1.52;;;3.80;99.90;;;;;;5036425;28;20029;-83
2021/12/25 13:04:50;;;;;;;2.83;1.10;;;3.80;99.90;;;;;;5037170;28;20474;-83
2021/12/25 13:07:19;;;;;;;2.38;1.23;;;3.80;99.90;;;;;;5031751;28;20399;-83
2021/12/25 13:09:55;;;;;;;2.40;1.20;;;3.80;99.90;;;;;;5017262;28;20087;-83
2021/12/25 13:12:45;;;;;;;1.52;0.95;;;3.80;99.90;;;;;;5034203;28;20036;-83
2021/12/25 13:15:19;;;;;;;2.35;1.15;;;3.80;99.90;;;;;;5035249;28;20049;-83
2021/12/25 13:17:56;;;;;;;4.55;1.20;;;3.90;99.90;;;;;;5035463;28;20071;-83
2021/12/25 13:20:41;;;;;;;2.60;1.00;;;3.90;99.90;;;;;;5034033;28;20093;-83
2021/12/25 13:23:14;;;;;;;3.15;0.98;;;3.90;99.90;;;;;;5017318;28;20018;-83
2021/12/25 13:25:57;;;;;;;3.30;1.30;;;3.90;99.90;;;;;;5017807;28;20108;-82
2021/12/25 13:28:25;;;;;;;3.30;1.05;;;3.90;99.90;;;;;;5017989;28;20118;-83
2021/12/25 13:30:54;;;;;;;1.88;1.05;;;4.00;99.90;;;;;;5017826;28;20032;-83
2021/12/25 13:33:24;;;;;;;1.90;0.80;;;4.00;99.90;;;;;;5017520;28;20056;-83
2021/12/25 13:36:20;;;;;;;2.85;1.08;;;4.00;99.90;;;;;;5017242;28;20025;-83
2021/12/25 13:39:05;;;;;;;2.33;1.10;;;4.10;99.90;;;;;;5033735;28;20088;-83
2021/12/25 13:41:40;;;;;;;1.67;0.90;;;4.10;99.90;;;;;;5033813;28;20060;-83
2021/12/25 13:44:22;;;;;;;3.90;1.75;;;4.10;99.90;;;;;;5034380;28;20143;-83
2021/12/25 13:47:06;;;;;;;2.78;1.10;;;4.10;99.90;;;;;;5015934;28;20014;-83
2021/12/25 13:49:39;;;;;;;2.38;1.00;;;4.10;99.90;;;;;;5016383;28;20033;-83
2021/12/25 13:52:07;;;;;;;5.50;1.20;;;4.10;99.90;;;;;;5019261;28;20613;-83
2021/12/25 13:54:36;;;;;;;4.20;1.20;;;4.10;99.90;;;;;;5049096;28;20017;-83
2021/12/25 13:57:02;;;;;;;3.05;1.05;;;4.00;99.90;;;;;;5036225;28;20017;-83
2021/12/25 13:59:28;;;;;;;3.72;1.00;;;3.90;99.90;;;;;;5036564;28;20048;-83
2021/12/25 14:02:08;;;;;;;3.08;1.23;;;3.80;99.90;;;;;;5036307;28;20021;-82
2021/12/25 14:04:35;;;;;;;3.15;0.90;;;3.80;99.90;;;;;;5035712;28;20040;-83
2021/12/25 14:07:01;;;;;;;2.60;1.00;;;3.60;99.90;;;;;;5036152;28;20025;-83
2021/12/25 14:09:27;;;;;;;1.90;1.08;;;3.60;99.90;;;;;;5054131;28;20029;-83
2021/12/25 14:11:55;;;;;;;2.90;1.25;;;3.50;99.60;;;;;;5020023;28;20078;-83
2021/12/25 14:14:24;;;;;;;1.42;0.85;;;3.40;99.90;;;;;;5036348;28;20095;-83
2021/12/25 14:16:51;;;;;;;1.33;0.90;;;3.40;99.90;;;;;;5032795;28;20474;-83
2021/12/25 14:19:18;;;;;;;4.30;1.27;;;3.30;99.90;;;;;;5035368;28;20017;-80
2021/12/25 14:22:00;;;;;;;2.53;0.90;;;3.30;99.90;;;;;;5019987;28;20024;-86
2021/12/25 14:24:26;;;;;;;3.20;1.10;;;3.30;99.90;;;;;;5036374;28;20047;-82